Malone, Texas
Current Conditions -  °F | °C
As of 9:55 PM on Friday 24 Oct 2014 (Local Time) from KINJ Reporting Station
Clear Clear  
Wind Chill: 22°   Ceiling: Unl
Heat Index: 22°   Visibility: 10mi
Dew Point: 14°   Wind: 8mph
Humidity: 61%   Direction: 140°SE
Pressure: 30.11"   Gusts: NA
Location:  31.92°N, 96.89°W
Report Text: KINJ 250255Z AUTO 14007KT 10SM CLR 22/14 A3011 RMK AO2 T02210142
Loading
Personal Weather Stations






























Interactive Weather Map
Tropical Storm Tracking
New forecast layout! Learn more

10-Day Weather Forecast

Advertisements
Track Severe Weather on mobile